Time;durP1;ratioP1;P1;durP2;ratioP2;P2;SDS_P1;SDS_P2;PMS_P1;PMS_P2;Temp;Humidity;BMP_temperature;BMP_pressure;BME280_temperature;BME280_humidity;BME280_pressure;Samples;Min_cycle;Max_cycle;Signal;HPM_P1;HPM_P2
2022/11/04 00:01:48;;;;;;;2.37;2.17;;;11.80;99.90;;;;;;4973860;28;20649;-93
2022/11/04 00:04:19;;;;;;;2.50;2.30;;;11.80;99.90;;;;;;4976928;28;20633;-93
2022/11/04 00:06:46;;;;;;;2.80;2.17;;;11.30;99.90;;;;;;4973004;28;20675;-94
2022/11/04 00:09:16;;;;;;;3.07;2.13;;;11.50;99.90;;;;;;4972095;28;20661;-93
2022/11/04 00:14:28;;;;;;;1.73;1.63;;;11.80;99.90;;;;;;4972853;28;20623;-94
2022/11/04 00:30:45;;;;;;;1.30;1.20;;;12.00;99.90;;;;;;4970349;28;20624;-93
2022/11/04 00:33:26;;;;;;;1.70;1.60;;;11.90;99.90;;;;;;4971387;28;20652;-94
2022/11/04 00:35:56;;;;;;;1.40;1.30;;;11.40;99.90;;;;;;4973061;28;21238;-92
2022/11/04 00:38:24;;;;;;;2.63;1.43;;;11.60;99.90;;;;;;4968520;28;20633;-91
2022/11/04 00:40:51;;;;;;;2.07;1.80;;;11.90;99.90;;;;;;4975449;28;20632;-89
2022/11/04 00:43:18;;;;;;;3.33;1.93;;;11.80;99.90;;;;;;4967635;28;20654;-91
2022/11/04 00:45:45;;;;;;;1.70;1.60;;;11.70;99.90;;;;;;4969004;28;20633;-91
2022/11/04 00:48:13;;;;;;;1.67;1.57;;;11.80;99.90;;;;;;4972334;28;20653;-90
2022/11/04 00:50:39;;;;;;;1.57;1.47;;;11.70;99.90;;;;;;4972135;28;20693;-91
2022/11/04 00:53:07;;;;;;;2.00;1.63;;;11.60;99.90;;;;;;4972347;28;20657;-91
2022/11/04 00:55:34;;;;;;;1.70;1.60;;;11.50;99.90;;;;;;4968963;28;21182;-91
2022/11/04 00:58:01;;;;;;;1.60;1.50;;;11.40;99.90;;;;;;4973240;28;20633;-91
2022/11/04 01:00:28;;;;;;;1.43;1.27;;;12.00;99.90;;;;;;4974916;28;20645;-91
2022/11/04 01:02:56;;;;;;;2.33;1.63;;;11.80;99.90;;;;;;4973740;28;20683;-91
2022/11/04 01:05:23;;;;;;;1.60;1.50;;;11.50;99.90;;;;;;4968709;28;20641;-91
2022/11/04 01:07:49;;;;;;;1.87;1.70;;;11.80;99.90;;;;;;4968581;28;20676;-91
2022/11/04 01:10:18;;;;;;;1.73;1.40;;;11.30;99.90;;;;;;4971130;28;20641;-91
2022/11/04 01:12:44;;;;;;;1.20;1.10;;;11.50;99.90;;;;;;4966702;28;20736;-91
2022/11/04 01:15:11;;;;;;;1.80;1.10;;;11.30;99.90;;;;;;4968981;28;20632;-91
2022/11/04 01:17:38;;;;;;;1.60;1.13;;;11.80;99.90;;;;;;4964816;28;20989;-91
2022/11/04 01:20:05;;;;;;;1.13;1.00;;;11.40;99.90;;;;;;4972732;28;21347;-94
2022/11/04 01:22:32;;;;;;;1.40;1.30;;;11.80;99.90;;;;;;4975686;28;20667;-93
2022/11/04 01:24:59;;;;;;;1.40;1.30;;;11.70;99.90;;;;;;4969055;28;21162;-94
2022/11/04 01:27:27;;;;;;;1.63;1.37;;;11.20;99.90;;;;;;4977274;28;20632;-92
2022/11/04 01:29:53;;;;;;;1.60;1.17;;;11.80;99.90;;;;;;4969823;28;20642;-93
2022/11/04 01:32:20;;;;;;;1.53;1.43;;;11.90;99.90;;;;;;4976130;28;20665;-92
2022/11/04 01:34:53;;;;;;;2.30;1.90;;;11.90;99.90;;;;;;4974270;28;20626;-92
2022/11/04 01:37:20;;;;;;;1.87;1.23;;;11.30;99.90;;;;;;4972435;28;20635;-92
2022/11/04 01:39:46;;;;;;;1.77;1.67;;;11.40;99.90;;;;;;4971532;28;20621;-91
2022/11/04 01:42:14;;;;;;;1.40;1.10;;;11.60;99.90;;;;;;4969942;28;20641;-92
2022/11/04 01:44:49;;;;;;;2.00;1.30;;;11.80;99.90;;;;;;4971716;28;20632;-91
2022/11/04 01:47:19;;;;;;;1.67;1.33;;;11.60;99.90;;;;;;4971447;28;20648;-92
2022/11/04 01:49:50;;;;;;;2.50;1.73;;;11.70;99.90;;;;;;4974070;28;20677;-92
2022/11/04 01:52:19;;;;;;;2.03;1.80;;;11.70;99.90;;;;;;4969533;28;20676;-92
2022/11/04 01:54:49;;;;;;;1.63;1.53;;;11.70;99.90;;;;;;4970291;28;20636;-91
2022/11/04 01:57:23;;;;;;;2.27;1.73;;;11.60;99.90;;;;;;4967992;28;20648;-92
2022/11/04 01:59:52;;;;;;;1.63;1.40;;;11.60;99.90;;;;;;4968566;28;21182;-92
2022/11/04 02:02:18;;;;;;;1.60;1.50;;;11.80;99.90;;;;;;4974923;28;20663;-92
2022/11/04 02:04:46;;;;;;;1.50;1.40;;;11.70;99.90;;;;;;4972805;28;20660;-92
2022/11/04 02:07:13;;;;;;;1.90;1.70;;;11.60;99.90;;;;;;4968409;28;20672;-92
2022/11/04 02:09:41;;;;;;;2.30;1.47;;;11.70;99.90;;;;;;4971949;28;20793;-90
2022/11/04 02:14:55;;;;;;;1.73;1.60;;;11.50;99.90;;;;;;4963654;28;20631;-93
2022/11/04 02:17:46;;;;;;;1.50;1.40;;;11.30;99.90;;;;;;4966319;28;20666;-91
2022/11/04 02:20:35;;;;;;;1.50;1.40;;;11.50;99.90;;;;;;4962352;28;20665;-91
2022/11/04 02:23:34;;;;;;;1.20;1.10;;;11.00;99.90;;;;;;4969411;28;20621;-92
2022/11/04 02:26:33;;;;;;;1.40;1.13;;;11.40;99.90;;;;;;4967437;28;20973;-91
2022/11/04 02:29:32;;;;;;;1.20;1.10;;;11.40;99.90;;;;;;4970392;28;20676;-91
2022/11/04 02:32:07;;;;;;;1.53;0.90;;;11.20;99.90;;;;;;4956663;28;20649;-91
2022/11/04 02:34:42;;;;;;;1.70;1.60;;;11.60;99.90;;;;;;4966767;28;20637;-91
2022/11/04 02:37:19;;;;;;;1.50;1.40;;;11.70;99.90;;;;;;4966249;28;21228;-91
2022/11/04 02:39:54;;;;;;;1.50;1.40;;;11.40;99.90;;;;;;4966414;28;20653;-91
2022/11/04 02:42:27;;;;;;;1.73;1.57;;;11.10;99.90;;;;;;4969076;28;20992;-91
2022/11/04 02:45:07;;;;;;;1.83;1.70;;;11.10;99.90;;;;;;4967600;28;20625;-91
2022/11/04 02:47:38;;;;;;;3.00;1.70;;;11.00;99.90;;;;;;4963852;28;20633;-89
2022/11/04 02:50:12;;;;;;;2.00;1.67;;;10.60;99.90;;;;;;4970468;28;20666;-89
2022/11/04 02:52:44;;;;;;;5.33;1.77;;;11.00;99.90;;;;;;4968810;28;20632;-91
2022/11/04 02:55:17;;;;;;;1.73;1.10;;;10.60;99.90;;;;;;4967739;28;20984;-90
2022/11/04 02:57:47;;;;;;;2.70;0.97;;;10.80;99.90;;;;;;4965484;28;20645;-91
2022/11/04 03:00:19;;;;;;;1.00;1.00;;;10.60;99.90;;;;;;4965049;28;20621;-91
2022/11/04 03:02:51;;;;;;;2.53;1.20;;;11.10;99.90;;;;;;4965180;28;20653;-92
2022/11/04 03:05:22;;;;;;;0.97;0.97;;;11.30;99.90;;;;;;4966152;28;21192;-92
2022/11/04 03:07:54;;;;;;;1.97;1.00;;;11.10;99.90;;;;;;4971778;28;20644;-92
2022/11/04 03:10:24;;;;;;;1.40;1.30;;;11.20;99.90;;;;;;4968015;28;20611;-91
2022/11/04 03:12:55;;;;;;;1.87;1.37;;;11.00;99.90;;;;;;4966224;28;20660;-92
2022/11/04 03:15:29;;;;;;;2.80;1.50;;;11.00;99.90;;;;;;4964166;28;20699;-91
2022/11/04 03:18:04;;;;;;;1.50;1.07;;;11.20;99.90;;;;;;4970401;28;20620;-91
2022/11/04 03:20:31;;;;;;;1.67;1.33;;;10.60;99.90;;;;;;4972039;28;20629;-90
2022/11/04 03:23:00;;;;;;;1.43;1.27;;;10.80;99.90;;;;;;4968104;28;20633;-91
2022/11/04 03:25:32;;;;;;;1.10;1.00;;;10.90;99.90;;;;;;4966189;28;20662;-91
2022/11/04 03:28:05;;;;;;;2.70;2.07;;;10.80;99.90;;;;;;4969124;28;21174;-91
2022/11/04 03:30:39;;;;;;;3.30;1.93;;;10.90;99.90;;;;;;4971980;28;20632;-90
2022/11/04 03:33:13;;;;;;;1.60;1.50;;;10.30;99.90;;;;;;4969348;28;20629;-89
2022/11/04 03:35:41;;;;;;;1.00;0.80;;;10.70;99.90;;;;;;4963098;28;20693;-90
2022/11/04 03:38:07;;;;;;;4.13;1.50;;;10.50;99.90;;;;;;4973444;28;21181;-90
2022/11/04 03:40:35;;;;;;;2.23;1.10;;;10.30;99.90;;;;;;4972935;28;20626;-90
2022/11/04 03:43:08;;;;;;;3.03;1.23;;;10.30;99.90;;;;;;4971504;28;20620;-91
2022/11/04 03:45:37;;;;;;;2.07;1.20;;;10.30;99.90;;;;;;4971309;28;20664;-90
2022/11/04 03:48:05;;;;;;;1.43;1.13;;;10.10;99.90;;;;;;4971110;28;20683;-90
2022/11/04 03:50:34;;;;;;;1.20;1.10;;;10.20;99.90;;;;;;4973205;28;20621;-90
2022/11/04 03:53:01;;;;;;;1.43;1.13;;;10.20;99.90;;;;;;4973072;28;20630;-91
2022/11/04 03:55:36;;;;;;;3.67;0.97;;;10.00;99.90;;;;;;4969607;28;20655;-91
2022/11/04 03:58:07;;;;;;;2.10;1.07;;;10.00;99.90;;;;;;4974417;28;20625;-91
2022/11/04 04:00:46;;;;;;;1.43;1.23;;;10.00;99.90;;;;;;4972061;28;20620;-91
2022/11/04 04:03:17;;;;;;;1.17;1.10;;;10.20;99.90;;;;;;4972273;28;20636;-91
2022/11/04 04:05:51;;;;;;;1.17;1.07;;;9.90;99.90;;;;;;4968541;28;21068;-88
2022/11/04 04:08:29;;;;;;;1.57;1.47;;;9.90;99.90;;;;;;4971330;28;21000;-90
2022/11/04 04:11:06;;;;;;;1.40;1.30;;;9.40;99.90;;;;;;4970394;28;20632;-89
2022/11/04 04:13:38;;;;;;;1.13;1.03;;;10.00;99.90;;;;;;4968919;28;20997;-88
2022/11/04 04:16:10;;;;;;;1.63;1.43;;;9.70;99.90;;;;;;4973773;28;20645;-89
2022/11/04 04:18:42;;;;;;;1.40;1.30;;;9.50;99.90;;;;;;4969662;28;20632;-88
2022/11/04 04:21:13;;;;;;;3.60;1.20;;;10.00;99.90;;;;;;4967712;28;20632;-87
2022/11/04 04:29:12;;;;;;;1.37;1.27;;;9.80;99.90;;;;;;4967907;28;20668;-89
2022/11/04 04:31:51;;;;;;;1.73;1.63;;;9.70;99.90;;;;;;4971358;28;20649;-89
2022/11/04 04:34:21;;;;;;;2.10;1.37;;;9.40;99.90;;;;;;4972289;28;20636;-90
2022/11/04 04:36:53;;;;;;;1.60;1.50;;;9.70;99.90;;;;;;4974359;28;20625;-89
2022/11/04 04:45:05;;;;;;;1.53;1.03;;;9.30;99.90;;;;;;4973930;28;20629;-89
2022/11/04 04:47:38;;;;;;;3.57;1.30;;;9.00;99.90;;;;;;4974088;28;21202;-89
2022/11/04 04:50:07;;;;;;;1.20;1.10;;;9.30;99.90;;;;;;4971704;28;21588;-89
2022/11/04 04:52:39;;;;;;;2.67;1.00;;;9.20;99.90;;;;;;4968322;28;20665;-88
2022/11/04 04:55:07;;;;;;;1.87;1.10;;;9.20;99.90;;;;;;4975414;28;20637;-87
2022/11/04 04:57:34;;;;;;;1.30;1.10;;;9.60;99.90;;;;;;4972321;28;20636;-88
2022/11/04 05:00:01;;;;;;;1.37;1.07;;;9.50;99.90;;;;;;4969199;28;20657;-88
2022/11/04 05:02:28;;;;;;;1.30;1.20;;;9.30;99.90;;;;;;4968782;28;20658;-88
2022/11/04 05:04:58;;;;;;;2.23;1.67;;;8.80;99.90;;;;;;4969294;28;20636;-88
2022/11/04 05:07:24;;;;;;;3.00;1.53;;;9.30;99.90;;;;;;4968907;28;20668;-88
2022/11/04 05:09:51;;;;;;;2.20;1.20;;;9.10;99.90;;;;;;4969821;28;20673;-87
2022/11/04 05:12:20;;;;;;;3.60;1.20;;;9.00;99.90;;;;;;4964582;28;20668;-87
2022/11/04 05:14:47;;;;;;;1.50;1.00;;;9.20;99.90;;;;;;4972602;28;20630;-88
2022/11/04 05:17:15;;;;;;;4.30;1.30;;;9.30;99.90;;;;;;4971736;28;20629;-89
2022/11/04 05:19:42;;;;;;;1.10;1.00;;;9.10;99.90;;;;;;4969470;28;20617;-89
2022/11/04 05:22:10;;;;;;;1.40;1.30;;;9.10;99.90;;;;;;4967281;28;20650;-89
2022/11/04 05:24:37;;;;;;;1.47;1.27;;;9.20;99.90;;;;;;4975702;28;20626;-89
2022/11/04 05:27:04;;;;;;;3.47;1.20;;;9.20;99.90;;;;;;4968869;28;20621;-90
2022/11/04 05:29:30;;;;;;;1.23;1.07;;;9.10;99.90;;;;;;4968375;28;20662;-88
2022/11/04 05:32:22;;;;;;;2.37;1.30;;;8.90;99.90;;;;;;4970215;28;20654;-90
2022/11/04 05:37:39;;;;;;;1.67;1.03;;;9.00;99.90;;;;;;4911924;29;21026;-88
2022/11/04 05:40:07;;;;;;;2.53;1.27;;;8.70;99.90;;;;;;4945937;28;20721;-89
2022/11/04 05:42:35;;;;;;;1.37;1.00;;;8.90;99.90;;;;;;4968735;28;20643;-88
2022/11/04 05:45:04;;;;;;;1.60;1.50;;;8.90;99.90;;;;;;4975421;28;20656;-88
2022/11/04 05:47:32;;;;;;;2.53;2.33;;;8.90;99.90;;;;;;4973592;28;21026;-88
2022/11/04 05:49:59;;;;;;;3.13;2.27;;;9.10;99.90;;;;;;4967122;28;20661;-88
2022/11/04 05:52:26;;;;;;;3.03;2.10;;;8.80;99.90;;;;;;4971194;28;20645;-88
2022/11/04 05:54:54;;;;;;;2.03;1.80;;;9.00;99.90;;;;;;4971757;28;20659;-88
2022/11/04 05:57:22;;;;;;;2.13;1.93;;;8.90;99.90;;;;;;4969818;28;20632;-88
2022/11/04 05:59:49;;;;;;;2.97;1.93;;;8.40;99.90;;;;;;4976310;28;20630;-88
2022/11/04 06:02:28;;;;;;;;;;;;;;;;;;;;;
2022/11/04 06:04:56;;;;;;;2.43;2.23;;;8.80;99.90;;;;;;4963780;28;20646;-87
2022/11/04 06:07:22;;;;;;;3.47;2.30;;;8.50;99.90;;;;;;4970173;28;20649;-87
2022/11/04 06:09:49;;;;;;;2.50;2.30;;;8.90;99.90;;;;;;4969968;28;20768;-89
2022/11/04 06:12:18;;;;;;;3.00;2.30;;;8.70;99.90;;;;;;4973660;28;20632;-89
2022/11/04 06:14:45;;;;;;;2.60;2.40;;;8.70;99.90;;;;;;4977078;28;20657;-89
2022/11/04 06:17:15;;;;;;;3.70;2.80;;;8.70;99.90;;;;;;4966052;28;20649;-88
2022/11/04 06:19:42;;;;;;;3.50;3.20;;;8.30;99.90;;;;;;4967502;28;21178;-88
2022/11/04 06:22:10;;;;;;;2.87;2.67;;;8.30;99.90;;;;;;4969318;28;21197;-87
2022/11/04 06:24:37;;;;;;;3.60;2.60;;;8.40;99.90;;;;;;4973052;28;20668;-89
2022/11/04 06:27:05;;;;;;;4.33;2.57;;;8.30;99.90;;;;;;4967434;28;20638;-88
2022/11/04 06:29:35;;;;;;;7.10;3.17;;;8.60;99.90;;;;;;4965019;28;20987;-87
2022/11/04 06:32:02;;;;;;;6.37;3.00;;;8.60;99.90;;;;;;4966378;28;20645;-88
2022/11/04 06:34:28;;;;;;;2.57;2.20;;;8.80;99.90;;;;;;4965024;28;20660;-87
2022/11/04 06:36:56;;;;;;;2.67;2.53;;;8.30;99.90;;;;;;4968756;28;20625;-89
2022/11/04 06:39:23;;;;;;;3.77;2.47;;;8.60;99.90;;;;;;4968449;28;20624;-88
2022/11/04 06:41:50;;;;;;;3.83;2.80;;;8.80;99.90;;;;;;4967605;28;20628;-87
2022/11/04 06:44:17;;;;;;;3.80;2.50;;;8.80;99.90;;;;;;4966923;28;20753;-87
2022/11/04 06:46:45;;;;;;;4.10;2.67;;;8.50;99.90;;;;;;4966476;28;20981;-88
2022/11/04 06:49:13;;;;;;;5.63;3.10;;;8.70;99.90;;;;;;4969802;28;20625;-89
2022/11/04 06:51:40;;;;;;;6.30;3.07;;;8.20;99.90;;;;;;4971198;28;20634;-89
2022/11/04 06:54:07;;;;;;;2.47;2.23;;;8.70;99.90;;;;;;4975694;28;21214;-89
2022/11/04 06:56:35;;;;;;;3.17;2.47;;;8.30;99.90;;;;;;4965029;28;20617;-87
2022/11/04 06:59:02;;;;;;;4.30;2.13;;;8.80;99.90;;;;;;4954709;28;20633;-88
2022/11/04 07:01:31;;;;;;;2.60;2.40;;;8.50;99.90;;;;;;4966550;28;20634;-88
2022/11/04 07:04:00;;;;;;;3.40;2.70;;;8.40;99.90;;;;;;4968940;28;20621;-88
2022/11/04 07:06:28;;;;;;;11.80;6.07;;;8.80;99.90;;;;;;4970533;28;20659;-88
2022/11/04 07:08:58;;;;;;;9.47;4.63;;;8.90;99.90;;;;;;4970612;28;20723;-87
2022/11/04 07:11:25;;;;;;;4.30;3.57;;;8.70;99.90;;;;;;4976217;28;20671;-88
2022/11/04 07:13:52;;;;;;;5.87;3.27;;;8.70;99.90;;;;;;4973584;28;20633;-87
2022/11/04 07:16:19;;;;;;;5.77;3.50;;;8.50;99.90;;;;;;4971044;28;20672;-87
2022/11/04 07:18:48;;;;;;;4.37;3.70;;;8.80;99.90;;;;;;4975707;28;20619;-87
2022/11/04 07:21:16;;;;;;;3.50;2.37;;;8.50;99.90;;;;;;4968474;28;21135;-87
2022/11/04 07:23:43;;;;;;;3.80;2.83;;;8.90;99.90;;;;;;4970655;28;20621;-87
2022/11/04 07:26:12;;;;;;;2.33;2.13;;;8.90;99.90;;;;;;4966899;28;21227;-88
2022/11/04 07:28:39;;;;;;;4.80;2.00;;;8.90;99.90;;;;;;4959858;28;20768;-89
2022/11/04 07:31:08;;;;;;;1.80;1.70;;;8.70;99.90;;;;;;4967525;28;20700;-89
2022/11/04 07:33:35;;;;;;;2.10;1.90;;;8.90;99.90;;;;;;4968588;28;20951;-89
2022/11/04 07:36:05;;;;;;;2.80;2.17;;;8.90;99.90;;;;;;4968187;28;20644;-89
2022/11/04 07:38:34;;;;;;;2.53;1.80;;;9.10;99.90;;;;;;4967228;28;20660;-89
2022/11/04 07:41:01;;;;;;;1.90;1.80;;;8.90;99.90;;;;;;4971470;28;20626;-88
2022/11/04 07:43:28;;;;;;;1.60;1.50;;;9.00;99.90;;;;;;4972266;28;20624;-89
2022/11/04 07:46:03;;;;;;;3.27;1.83;;;9.10;99.90;;;;;;4968838;28;21044;-95
2022/11/04 07:48:30;;;;;;;3.93;1.70;;;9.10;99.90;;;;;;4975601;28;20688;-91
2022/11/04 07:51:00;;;;;;;2.33;1.77;;;9.20;99.90;;;;;;4972774;28;21256;-90
2022/11/04 07:53:27;;;;;;;2.20;1.50;;;9.30;99.90;;;;;;4973686;28;20633;-90
2022/11/04 07:55:55;;;;;;;3.40;2.30;;;9.40;99.90;;;;;;4975377;28;20638;-91
2022/11/04 07:58:22;;;;;;;4.33;2.40;;;9.40;99.90;;;;;;4978259;28;20745;-91
2022/11/04 08:00:50;;;;;;;3.10;1.80;;;9.50;99.90;;;;;;4974897;28;20632;-89
2022/11/04 08:03:17;;;;;;;5.90;2.17;;;9.50;99.90;;;;;;4973289;28;20653;-89
2022/11/04 08:05:44;;;;;;;5.80;2.33;;;9.30;99.90;;;;;;4969923;28;20633;-90
2022/11/04 08:08:12;;;;;;;4.97;2.10;;;9.70;99.90;;;;;;4969750;28;20680;-89
2022/11/04 08:10:39;;;;;;;5.07;1.90;;;9.40;99.90;;;;;;4972755;28;20672;-88
2022/11/04 08:13:07;;;;;;;4.63;2.67;;;9.50;99.90;;;;;;4971243;28;20672;-89
2022/11/04 08:15:36;;;;;;;8.80;7.97;;;9.50;99.90;;;;;;4971324;28;20637;-91
2022/11/04 08:18:04;;;;;;;9.53;4.03;;;10.00;99.90;;;;;;4972860;28;21023;-93
2022/11/04 08:20:32;;;;;;;4.33;3.90;;;10.30;99.90;;;;;;4974178;28;20632;-90
2022/11/04 08:22:59;;;;;;;5.20;4.00;;;10.40;99.90;;;;;;4973911;28;20637;-90
2022/11/04 08:25:25;;;;;;;6.67;6.03;;;10.20;99.90;;;;;;4975290;28;20705;-90
2022/11/04 08:27:53;;;;;;;6.73;4.30;;;10.50;99.90;;;;;;4981822;28;20649;-91
2022/11/04 08:30:21;;;;;;;4.40;4.07;;;10.40;99.90;;;;;;4976284;28;20676;-91
2022/11/04 08:32:48;;;;;;;9.53;4.43;;;10.30;99.90;;;;;;4970797;28;20629;-90
2022/11/04 08:35:15;;;;;;;6.30;2.30;;;10.80;99.90;;;;;;4971318;28;20693;-92
2022/11/04 08:37:42;;;;;;;2.33;2.13;;;10.60;99.90;;;;;;4970607;28;20678;-92
2022/11/04 08:40:10;;;;;;;3.93;3.10;;;10.80;99.90;;;;;;4973686;28;20712;-91
2022/11/04 08:42:37;;;;;;;11.30;3.00;;;11.00;99.90;;;;;;4972280;28;20756;-91
2022/11/04 08:45:05;;;;;;;2.90;2.70;;;11.20;99.90;;;;;;4973395;28;20633;-90
2022/11/04 08:47:33;;;;;;;2.37;2.17;;;11.10;99.90;;;;;;4971939;28;20654;-91
2022/11/04 08:50:00;;;;;;;2.67;2.10;;;11.40;99.90;;;;;;4977555;28;21041;-93
2022/11/04 08:52:28;;;;;;;2.47;2.23;;;11.50;99.90;;;;;;4970604;28;21242;-88
2022/11/04 08:54:56;;;;;;;13.87;12.60;;;11.60;99.90;;;;;;4969812;28;20621;-89
2022/11/04 08:57:23;;;;;;;10.67;8.40;;;11.20;99.90;;;;;;4969290;28;20724;-92
2022/11/04 08:59:50;;;;;;;4.60;3.63;;;11.60;99.90;;;;;;4972361;28;21201;-90
2022/11/04 09:02:16;;;;;;;3.23;2.83;;;11.60;99.90;;;;;;4972743;28;20637;-91
2022/11/04 09:04:45;;;;;;;2.40;2.13;;;11.00;99.90;;;;;;4972448;28;21598;-92
2022/11/04 09:07:11;;;;;;;3.30;2.20;;;11.20;99.90;;;;;;4971948;28;20785;-91
2022/11/04 09:09:44;;;;;;;6.37;2.20;;;11.70;99.90;;;;;;4969654;28;20745;-96
2022/11/04 09:12:12;;;;;;;2.20;2.00;;;11.10;99.90;;;;;;4968459;28;20632;-92
2022/11/04 09:14:38;;;;;;;3.40;2.30;;;11.20;99.90;;;;;;4968989;28;20909;-93
2022/11/04 09:17:05;;;;;;;4.97;2.10;;;11.50;99.90;;;;;;4967551;28;20657;-92
2022/11/04 09:19:32;;;;;;;3.60;2.73;;;11.30;99.90;;;;;;4974603;28;20664;-94
2022/11/04 09:22:00;;;;;;;3.20;1.83;;;11.50;99.90;;;;;;4977838;28;20637;-93
2022/11/04 09:24:27;;;;;;;2.70;2.00;;;11.20;99.90;;;;;;4977855;28;20662;-92
2022/11/04 09:26:57;;;;;;;3.90;2.20;;;11.30;99.90;;;;;;4969552;28;20657;-92
2022/11/04 09:29:25;;;;;;;1.70;1.60;;;11.80;99.90;;;;;;4979085;28;20636;-93
2022/11/04 09:31:52;;;;;;;3.30;2.33;;;11.40;99.90;;;;;;4973603;28;20708;-93
2022/11/04 09:34:19;;;;;;;3.43;2.10;;;11.80;99.90;;;;;;4974260;28;20664;-93
2022/11/04 09:36:46;;;;;;;2.03;1.53;;;11.70;99.90;;;;;;4973614;28;20624;-91
2022/11/04 09:39:16;;;;;;;2.87;1.60;;;11.80;99.90;;;;;;4974118;28;20657;-91
2022/11/04 09:41:56;;;;;;;3.60;2.03;;;11.90;99.90;;;;;;4972746;28;20649;-94
2022/11/04 09:44:26;;;;;;;3.53;1.73;;;12.00;99.90;;;;;;4971079;28;20641;-94
2022/11/04 09:46:59;;;;;;;1.90;1.80;;;11.60;99.90;;;;;;4976522;28;20628;-93
2022/11/04 09:49:28;;;;;;;1.83;1.73;;;12.00;99.90;;;;;;4972836;28;20629;-93
2022/11/04 09:51:57;;;;;;;5.50;2.40;;;12.30;99.90;;;;;;4972770;28;20688;-93
2022/11/04 09:54:40;;;;;;;2.30;2.10;;;12.20;99.90;;;;;;4974664;28;20641;-91
2022/11/04 09:57:15;;;;;;;3.00;2.43;;;12.40;99.90;;;;;;4976935;28;20691;-92
2022/11/04 09:59:42;;;;;;;3.00;2.20;;;12.00;99.90;;;;;;4974123;28;20637;-94
2022/11/04 10:02:37;;;;;;;2.60;1.90;;;12.20;99.90;;;;;;4980376;28;20629;-94
2022/11/04 10:05:16;;;;;;;2.70;1.80;;;12.80;99.90;;;;;;4969838;28;20637;-93
2022/11/04 10:07:55;;;;;;;3.30;2.03;;;13.00;99.90;;;;;;4971826;28;20635;-92
2022/11/04 10:10:29;;;;;;;4.10;2.33;;;13.10;99.90;;;;;;4978934;28;20671;-93
2022/11/04 10:13:17;;;;;;;3.83;2.27;;;13.10;64.00;;;;;;4973420;28;20630;-93
2022/11/04 10:16:00;;;;;;;4.63;2.07;;;13.30;1.00;;;;;;4968999;28;20680;-93
2022/11/04 10:18:43;;;;;;;2.90;1.80;;;13.40;1.00;;;;;;4973496;28;20625;-92
2022/11/04 10:21:21;;;;;;;3.40;1.70;;;13.30;1.00;;;;;;4973989;28;20645;-92
2022/11/04 10:24:01;;;;;;;2.27;2.07;;;13.50;1.00;;;;;;4972626;28;20625;-93
2022/11/04 10:26:37;;;;;;;2.63;2.20;;;13.60;1.00;;;;;;4973967;28;20668;-93
2022/11/04 10:29:06;;;;;;;11.03;5.40;;;13.20;1.00;;;;;;4979935;28;20652;-93
2022/11/04 10:31:38;;;;;;;2.50;2.30;;;13.50;1.00;;;;;;4978981;28;20669;-93
2022/11/04 10:34:08;;;;;;;6.37;2.93;;;13.60;1.00;;;;;;4985859;28;20672;-94
2022/11/04 10:36:36;;;;;;;3.50;2.23;;;13.80;1.00;;;;;;4983629;28;20634;-91
2022/11/04 10:39:17;;;;;;;5.33;2.83;;;13.90;1.00;;;;;;4975128;28;20626;-93
2022/11/04 10:41:46;;;;;;;5.03;2.70;;;14.20;1.00;;;;;;4975114;28;21238;-93
2022/11/04 10:44:20;;;;;;;3.63;3.30;;;14.50;1.00;;;;;;4976037;28;20637;-93
2022/11/04 10:46:55;;;;;;;4.90;2.13;;;14.80;1.00;;;;;;4970335;28;20622;-93
2022/11/04 10:49:49;;;;;;;3.10;2.20;;;15.20;1.00;;;;;;4971830;28;20663;-92
2022/11/04 10:52:18;;;;;;;2.60;2.20;;;15.40;1.00;;;;;;4970353;28;20669;-95
2022/11/04 10:54:47;;;;;;;3.37;2.20;;;15.70;99.90;;;;;;4972396;28;20636;-90
2022/11/04 10:57:20;;;;;;;2.30;1.40;;;15.70;12.40;;;;;;4967983;28;20632;-95
2022/11/04 10:59:52;;;;;;;2.00;1.40;;;15.90;99.90;;;;;;4972571;28;20653;-95
2022/11/04 11:02:39;;;;;;;2.40;1.70;;;16.10;99.90;;;;;;4970948;28;20657;-94
2022/11/04 11:05:15;;;;;;;2.10;1.20;;;16.20;99.90;;;;;;4969638;28;20653;-91
2022/11/04 11:07:43;;;;;;;1.90;1.50;;;16.50;99.90;;;;;;4976561;28;20643;-95
2022/11/04 11:10:18;;;;;;;2.63;1.20;;;16.80;1.00;;;;;;4973481;28;21190;-94
2022/11/04 11:12:52;;;;;;;3.40;2.00;;;16.90;1.00;;;;;;4968759;28;20644;-94
2022/11/04 11:15:28;;;;;;;3.50;1.90;;;17.00;40.10;;;;;;4970582;28;20625;-95
2022/11/04 11:18:03;;;;;;;2.50;1.80;;;16.80;1.00;;;;;;4968331;28;21100;-95
2022/11/04 11:20:32;;;;;;;2.90;1.83;;;16.70;1.00;;;;;;4974082;28;20668;-94
2022/11/04 11:23:00;;;;;;;3.53;2.03;;;16.50;1.00;;;;;;4976887;28;20676;-95
2022/11/04 11:25:31;;;;;;;4.50;1.20;;;16.40;1.00;;;;;;4968420;28;20697;-94
2022/11/04 11:28:01;;;;;;;4.37;2.07;;;16.10;99.90;;;;;;4973597;28;20637;-95
2022/11/04 11:30:31;;;;;;;2.57;1.73;;;15.80;99.90;;;;;;4968397;28;20693;-95
2022/11/04 11:33:02;;;;;;;3.43;1.53;;;15.40;4.90;;;;;;4971142;28;20634;-93
2022/11/04 11:35:40;;;;;;;5.23;2.13;;;15.30;99.90;;;;;;4970239;28;21212;-94
2022/11/04 11:38:19;;;;;;;3.87;2.00;;;15.20;1.00;;;;;;4970046;28;21154;-93
2022/11/04 11:40:49;;;;;;;3.80;2.67;;;14.90;1.00;;;;;;4971462;28;20645;-94
2022/11/04 11:43:26;;;;;;;4.70;1.90;;;14.70;99.90;;;;;;4971603;28;21061;-94
2022/11/04 11:45:56;;;;;;;3.70;1.70;;;14.80;1.00;;;;;;4969458;28;20653;-93
2022/11/04 11:48:31;;;;;;;2.00;1.57;;;14.90;83.70;;;;;;4972113;28;20654;-94
2022/11/04 11:50:59;;;;;;;3.13;1.70;;;15.00;1.00;;;;;;4979744;28;20665;-95
2022/11/04 11:53:32;;;;;;;3.90;1.67;;;15.10;29.20;;;;;;4977201;28;20728;-96
2022/11/04 11:56:10;;;;;;;5.03;1.63;;;15.20;1.00;;;;;;4975355;28;20654;-95
2022/11/04 11:58:51;;;;;;;3.77;1.47;;;15.20;99.90;;;;;;4964026;28;20627;-95
2022/11/04 12:01:24;;;;;;;2.20;1.23;;;15.10;1.00;;;;;;4985855;28;20624;-95
2022/11/04 12:03:54;;;;;;;2.93;1.50;;;15.10;1.00;;;;;;4992715;28;20609;-93
2022/11/04 12:06:31;;;;;;;4.67;1.63;;;15.00;1.00;;;;;;4971078;28;20669;-93
2022/11/04 12:09:24;;;;;;;2.43;0.90;;;15.10;10.00;;;;;;4970672;28;20868;-96
2022/11/04 12:12:05;;;;;;;4.77;2.10;;;15.00;1.00;;;;;;4970101;28;20669;-95
2022/11/04 12:14:45;;;;;;;2.30;1.23;;;14.90;1.00;;;;;;4977512;28;20625;-95
2022/11/04 12:17:26;;;;;;;3.87;1.30;;;15.00;1.00;;;;;;4971305;28;20660;-94
2022/11/04 12:20:08;;;;;;;4.80;1.70;;;15.00;1.00;;;;;;4973565;28;20663;-95
2022/11/04 12:22:47;;;;;;;3.07;0.90;;;15.10;99.90;;;;;;4972383;28;20636;-95
2022/11/04 12:25:22;;;;;;;2.47;1.37;;;15.20;1.00;;;;;;4968390;28;20725;-95
2022/11/04 12:27:56;;;;;;;2.73;1.40;;;15.20;99.90;;;;;;4973090;28;20667;-96
2022/11/04 12:30:26;;;;;;;3.23;1.43;;;15.20;1.00;;;;;;4972268;28;20766;-96
2022/11/04 12:33:14;;;;;;;3.23;1.47;;;15.10;99.90;;;;;;4974488;28;20661;-95
2022/11/04 12:35:54;;;;;;;2.00;1.50;;;15.10;99.90;;;;;;4975902;28;20640;-94
2022/11/04 12:38:36;;;;;;;3.10;1.37;;;15.10;99.90;;;;;;4975087;28;20644;-96
2022/11/04 12:41:12;;;;;;;6.30;1.50;;;15.10;99.90;;;;;;4979526;28;20684;-94
2022/11/04 12:43:53;;;;;;;4.47;1.43;;;15.00;99.90;;;;;;4976324;28;20657;-96
2022/11/04 12:46:32;;;;;;;3.43;1.63;;;14.70;99.90;;;;;;4977078;28;20720;-96
2022/11/04 12:49:21;;;;;;;3.50;1.00;;;14.80;99.90;;;;;;4983423;28;20724;-96
2022/11/04 12:52:01;;;;;;;3.90;1.20;;;14.70;99.90;;;;;;4974611;28;20786;-95
2022/11/04 12:54:45;;;;;;;3.90;1.87;;;14.80;99.90;;;;;;4984165;28;20668;-96
2022/11/04 12:57:20;;;;;;;4.93;1.37;;;14.80;99.90;;;;;;4981309;28;20629;-96
2022/11/04 13:00:02;;;;;;;1.80;1.00;;;14.70;99.90;;;;;;4976959;28;21410;-95
2022/11/04 13:02:34;;;;;;;3.50;1.40;;;14.70;99.90;;;;;;4979320;28;20732;-93
2022/11/04 13:05:08;;;;;;;1.93;1.10;;;14.70;99.90;;;;;;4968307;28;20638;-93
2022/11/04 13:07:41;;;;;;;2.90;1.10;;;14.60;99.90;;;;;;4963216;28;20988;-93
2022/11/04 13:10:16;;;;;;;3.53;0.90;;;14.60;99.90;;;;;;4968307;28;20663;-92
2022/11/04 13:12:45;;;;;;;2.40;1.33;;;14.60;99.90;;;;;;4967143;28;21272;-91
2022/11/04 13:15:18;;;;;;;3.40;1.27;;;14.70;99.90;;;;;;4971851;28;20658;-92
2022/11/04 13:17:49;;;;;;;1.63;1.37;;;14.60;99.90;;;;;;4971571;28;21155;-93
2022/11/04 13:20:26;;;;;;;3.80;1.80;;;14.60;99.90;;;;;;4970081;28;20664;-93
2022/11/04 13:22:54;;;;;;;3.27;1.23;;;14.60;99.90;;;;;;4971260;28;21064;-93
2022/11/04 13:25:30;;;;;;;3.80;1.20;;;14.60;99.90;;;;;;4975173;28;20675;-93
2022/11/04 13:27:59;;;;;;;2.57;1.47;;;14.80;99.90;;;;;;4969294;28;20629;-92
2022/11/04 13:30:36;;;;;;;5.17;1.93;;;14.80;99.90;;;;;;4974912;28;20641;-94
2022/11/04 13:33:17;;;;;;;3.20;1.30;;;14.90;99.90;;;;;;4979723;28;20661;-95
2022/11/04 13:35:54;;;;;;;5.57;1.57;;;15.00;99.90;;;;;;4969336;28;20672;-94
2022/11/04 13:38:28;;;;;;;4.73;1.13;;;15.10;99.90;;;;;;4977847;28;20653;-95
2022/11/04 13:41:13;;;;;;;3.53;1.47;;;15.20;99.90;;;;;;4982851;28;20628;-94
2022/11/04 13:43:45;;;;;;;2.07;1.37;;;15.50;99.90;;;;;;4977270;28;20660;-94
2022/11/04 13:46:28;;;;;;;3.30;1.30;;;15.60;98.70;;;;;;4976969;28;20977;-94
2022/11/04 13:49:03;;;;;;;1.63;1.10;;;15.70;98.40;;;;;;4987623;28;20712;-93